createdAt,value
2023-03-27T17:28:05.186Z,63.42
2023-03-27T17:30:41.240Z,63.82
2023-03-27T17:33:12.127Z,64.39
2023-03-27T17:35:40.534Z,65.22
2023-03-27T17:38:10.204Z,65.24
2023-03-27T17:40:40.775Z,65.52
2023-03-27T17:43:10.620Z,66.26
2023-03-27T18:30:01.512Z,70.26
2023-03-27T18:32:29.435Z,70.97
2023-03-27T18:35:18.241Z,71.00
2023-03-27T18:37:47.059Z,70.82
2023-03-27T18:43:20.992Z,71.92
2023-03-27T18:45:57.405Z,71.13
2023-03-27T18:48:32.085Z,71.89
2023-03-27T18:51:02.586Z,71.88
2023-03-27T18:53:31.630Z,72.06
2023-03-27T18:59:17.113Z,72.50
2023-03-27T19:01:46.170Z,73.02
2023-03-27T19:04:15.801Z,73.57
2023-03-27T19:06:46.367Z,74.37
2023-03-27T19:09:14.668Z,74.62
2023-03-27T19:11:43.913Z,75.22
2023-03-27T19:14:18.444Z,75.27
2023-03-27T19:17:14.872Z,76.50
2023-03-27T19:20:15.734Z,76.52
2023-03-27T19:23:02.581Z,76.47
2023-03-27T19:25:35.266Z,77.30
2023-03-27T19:28:03.128Z,76.79
2023-03-27T19:30:31.192Z,77.47
2023-03-27T19:33:00.340Z,77.74
2023-03-27T19:35:28.271Z,77.97
2023-03-27T19:37:56.683Z,78.07
2023-03-27T19:40:26.186Z,78.33
2023-03-27T19:42:54.653Z,77.80
2023-03-27T19:45:22.432Z,78.08
2023-03-27T19:47:50.748Z,76.96
2023-03-27T19:50:20.025Z,76.99
2023-03-27T19:53:09.063Z,77.44
2023-03-27T19:55:37.080Z,77.46
2023-03-27T19:58:05.177Z,77.07
2023-03-27T20:00:38.196Z,77.30
2023-03-27T20:03:10.326Z,78.04
2023-03-27T20:05:41.215Z,78.70
2023-03-27T20:08:08.984Z,77.50
2023-03-27T20:10:36.733Z,76.93
2023-03-27T20:13:05.334Z,77.44
2023-03-27T20:15:34.394Z,76.96
2023-03-27T20:18:03.625Z,77.68
2023-03-27T20:20:31.561Z,76.68
2023-03-27T20:23:03.615Z,77.06
2023-03-27T20:25:33.700Z,76.92
2023-03-27T20:28:02.259Z,77.39
2023-03-27T20:30:31.564Z,76.15
2023-03-27T20:33:02.915Z,76.29
2023-03-27T20:35:32.845Z,76.05
2023-03-27T20:38:04.701Z,75.93
2023-03-27T20:40:52.395Z,75.11
2023-03-27T20:43:23.514Z,75.83
2023-03-27T20:45:52.872Z,76.20
2023-03-27T20:48:22.210Z,76.58
2023-03-27T20:50:52.496Z,75.75
2023-03-27T20:53:26.259Z,75.74
2023-03-27T20:56:00.322Z,75.86
2023-03-27T20:58:28.899Z,76.29
2023-03-27T21:00:57.005Z,76.07
2023-03-27T21:03:25.006Z,75.98
2023-03-27T21:05:52.776Z,75.65
2023-03-27T21:08:21.263Z,76.04
2023-03-27T21:10:53.961Z,75.07
2023-03-27T21:13:23.151Z,74.52
2023-03-27T21:15:50.937Z,75.54
2023-03-27T21:18:19.190Z,75.31
2023-03-27T21:20:47.096Z,75.02
2023-03-27T21:23:15.109Z,75.09
2023-03-27T21:25:44.357Z,75.22
2023-03-27T21:28:12.118Z,74.76
2023-03-27T21:30:46.698Z,75.73
2023-03-27T21:33:16.383Z,75.53
2023-03-27T21:35:46.882Z,75.67
2023-03-27T21:38:16.325Z,75.01
2023-03-27T21:40:45.848Z,75.50
2023-03-27T21:43:13.751Z,75.60
2023-03-27T21:45:43.133Z,75.46
2023-03-27T21:48:11.249Z,75.62
2023-03-27T21:50:39.301Z,76.22
2023-03-27T21:53:07.138Z,76.55
2023-03-27T21:55:35.756Z,76.43
2023-03-27T21:58:03.627Z,76.34
2023-03-27T22:00:31.518Z,76.21
2023-03-27T22:03:00.737Z,75.79
2023-03-27T22:05:28.569Z,76.17
2023-03-27T22:07:57.635Z,76.27
2023-03-27T22:10:25.390Z,77.06
2023-03-27T22:12:53.134Z,77.40
2023-03-27T22:15:20.911Z,77.06
2023-03-27T22:17:48.985Z,77.58
2023-03-27T22:20:18.915Z,77.36
2023-03-27T22:22:48.510Z,77.45
2023-03-27T22:25:16.388Z,78.29
2023-03-27T22:27:44.321Z,78.77
2023-03-27T22:30:12.563Z,77.83
2023-03-27T22:32:41.765Z,77.97
2023-03-27T22:35:11.244Z,77.61
2023-03-27T22:37:40.961Z,78.24
2023-03-27T22:40:09.661Z,78.02
2023-03-27T22:42:37.546Z,78.09
2023-03-27T22:45:05.729Z,79.88
2023-03-27T22:47:33.692Z,79.78
2023-03-27T22:50:02.437Z,79.92
2023-03-27T22:52:30.425Z,80.53
2023-03-27T22:54:59.646Z,79.56
2023-03-27T22:57:28.594Z,79.10
2023-03-27T22:59:56.436Z,78.69
2023-03-27T23:02:24.424Z,78.31
2023-03-27T23:04:52.393Z,79.12
2023-03-27T23:07:20.361Z,78.67
2023-03-27T23:09:48.094Z,79.53
2023-03-27T23:12:17.661Z,78.70
2023-03-27T23:14:46.642Z,78.59
2023-03-27T23:17:14.432Z,79.16
2023-03-27T23:19:42.400Z,79.47
2023-03-27T23:22:10.257Z,79.53
2023-03-27T23:24:38.011Z,80.57
2023-03-27T23:27:08.266Z,80.82
2023-03-27T23:29:37.420Z,79.61
2023-03-27T23:32:05.810Z,79.49
2023-03-27T23:34:33.608Z,80.50
2023-03-27T23:37:01.384Z,80.16
2023-03-27T23:39:29.350Z,80.28
2023-03-27T23:41:57.130Z,80.79
2023-03-27T23:44:24.896Z,81.55
2023-03-27T23:46:54.038Z,82.38
2023-03-27T23:49:21.778Z,81.74
2023-03-27T23:51:49.552Z,81.88
2023-03-27T23:54:17.497Z,81.74
2023-03-27T23:56:45.323Z,81.50
2023-03-27T23:59:13.217Z,82.23
